sensor_id;sensor_type;location;lat;lon;timestamp;P1;durP1;ratioP1;P2;durP2;ratioP2
51020;SDS011;38907;45.562;8.856;2022-07-30T00:04:53;15.80;;;12.73;;
51020;SDS011;38907;45.562;8.856;2022-07-30T00:09:56;18.63;;;11.90;;
51020;SDS011;38907;45.562;8.856;2022-07-30T00:20:02;19.55;;;14.18;;
51020;SDS011;38907;45.562;8.856;2022-07-30T00:25:06;17.98;;;15.27;;
51020;SDS011;38907;45.562;8.856;2022-07-30T00:30:11;23.10;;;15.10;;
51020;SDS011;38907;45.562;8.856;2022-07-30T00:35:14;22.00;;;14.88;;
51020;SDS011;38907;45.562;8.856;2022-07-30T00:40:17;18.10;;;13.68;;
51020;SDS011;38907;45.562;8.856;2022-07-30T00:45:22;20.35;;;15.52;;
51020;SDS011;38907;45.562;8.856;2022-07-30T00:50:26;19.20;;;16.05;;
51020;SDS011;38907;45.562;8.856;2022-07-30T01:00:33;19.25;;;14.43;;
51020;SDS011;38907;45.562;8.856;2022-07-30T01:05:35;17.80;;;13.63;;
51020;SDS011;38907;45.562;8.856;2022-07-30T01:10:38;17.40;;;13.82;;
51020;SDS011;38907;45.562;8.856;2022-07-30T01:20:47;20.08;;;14.35;;
51020;SDS011;38907;45.562;8.856;2022-07-30T01:25:57;16.85;;;14.15;;
51020;SDS011;38907;45.562;8.856;2022-07-30T01:31:03;19.15;;;15.25;;
51020;SDS011;38907;45.562;8.856;2022-07-30T01:36:09;19.33;;;14.93;;
51020;SDS011;38907;45.562;8.856;2022-07-30T01:41:15;20.50;;;14.73;;
51020;SDS011;38907;45.562;8.856;2022-07-30T01:46:20;21.75;;;15.57;;
51020;SDS011;38907;45.562;8.856;2022-07-30T01:51:25;20.88;;;14.80;;
51020;SDS011;38907;45.562;8.856;2022-07-30T01:56:31;22.58;;;18.13;;
51020;SDS011;38907;45.562;8.856;2022-07-30T02:01:36;24.40;;;18.27;;
51020;SDS011;38907;45.562;8.856;2022-07-30T02:06:40;25.98;;;18.30;;
51020;SDS011;38907;45.562;8.856;2022-07-30T02:11:47;27.42;;;16.00;;
51020;SDS011;38907;45.562;8.856;2022-07-30T02:17:08;23.02;;;17.50;;
51020;SDS011;38907;45.562;8.856;2022-07-30T02:22:15;30.35;;;19.05;;
51020;SDS011;38907;45.562;8.856;2022-07-30T02:27:23;27.20;;;18.52;;
51020;SDS011;38907;45.562;8.856;2022-07-30T02:32:28;28.77;;;17.33;;
51020;SDS011;38907;45.562;8.856;2022-07-30T02:42:41;22.55;;;16.17;;
51020;SDS011;38907;45.562;8.856;2022-07-30T02:47:48;18.73;;;13.40;;
51020;SDS011;38907;45.562;8.856;2022-07-30T02:52:52;13.48;;;11.20;;
51020;SDS011;38907;45.562;8.856;2022-07-30T02:57:58;17.75;;;11.80;;
51020;SDS011;38907;45.562;8.856;2022-07-30T03:03:02;13.70;;;10.63;;
51020;SDS011;38907;45.562;8.856;2022-07-30T03:08:07;13.35;;;10.52;;
51020;SDS011;38907;45.562;8.856;2022-07-30T03:13:11;15.60;;;10.75;;
51020;SDS011;38907;45.562;8.856;2022-07-30T03:18:18;15.75;;;10.25;;
51020;SDS011;38907;45.562;8.856;2022-07-30T03:23:21;10.38;;;8.75;;
51020;SDS011;38907;45.562;8.856;2022-07-30T03:28:25;10.38;;;8.25;;
51020;SDS011;38907;45.562;8.856;2022-07-30T03:33:31;10.07;;;7.05;;
51020;SDS011;38907;45.562;8.856;2022-07-30T03:38:35;8.60;;;6.38;;
51020;SDS011;38907;45.562;8.856;2022-07-30T03:43:41;8.77;;;6.35;;
51020;SDS011;38907;45.562;8.856;2022-07-30T03:48:44;6.28;;;5.30;;
51020;SDS011;38907;45.562;8.856;2022-07-30T03:53:47;10.38;;;4.70;;
51020;SDS011;38907;45.562;8.856;2022-07-30T03:58:53;5.10;;;4.40;;
51020;SDS011;38907;45.562;8.856;2022-07-30T04:04:02;6.22;;;4.20;;
51020;SDS011;38907;45.562;8.856;2022-07-30T04:09:06;5.90;;;4.05;;
51020;SDS011;38907;45.562;8.856;2022-07-30T04:14:11;4.63;;;3.88;;
51020;SDS011;38907;45.562;8.856;2022-07-30T04:19:15;3.95;;;3.55;;
51020;SDS011;38907;45.562;8.856;2022-07-30T04:24:22;6.32;;;3.38;;
51020;SDS011;38907;45.562;8.856;2022-07-30T04:29:28;3.63;;;3.33;;
51020;SDS011;38907;45.562;8.856;2022-07-30T04:34:31;3.53;;;3.17;;
51020;SDS011;38907;45.562;8.856;2022-07-30T04:39:34;5.07;;;2.70;;
51020;SDS011;38907;45.562;8.856;2022-07-30T04:44:38;4.90;;;3.50;;
51020;SDS011;38907;45.562;8.856;2022-07-30T04:49:42;4.85;;;3.10;;
51020;SDS011;38907;45.562;8.856;2022-07-30T04:54:47;4.15;;;2.67;;
51020;SDS011;38907;45.562;8.856;2022-07-30T04:59:55;3.63;;;3.25;;
51020;SDS011;38907;45.562;8.856;2022-07-30T05:04:57;5.75;;;3.58;;
51020;SDS011;38907;45.562;8.856;2022-07-30T05:10:01;3.88;;;3.17;;
51020;SDS011;38907;45.562;8.856;2022-07-30T05:15:06;3.97;;;2.90;;
51020;SDS011;38907;45.562;8.856;2022-07-30T05:20:13;6.45;;;2.83;;
51020;SDS011;38907;45.562;8.856;2022-07-30T05:25:16;5.05;;;2.28;;
51020;SDS011;38907;45.562;8.856;2022-07-30T05:35:22;2.25;;;2.05;;
51020;SDS011;38907;45.562;8.856;2022-07-30T05:40:25;5.30;;;2.25;;
51020;SDS011;38907;45.562;8.856;2022-07-30T05:45:30;3.83;;;2.28;;
51020;SDS011;38907;45.562;8.856;2022-07-30T05:50:33;4.38;;;2.08;;
51020;SDS011;38907;45.562;8.856;2022-07-30T05:55:35;3.90;;;2.78;;
51020;SDS011;38907;45.562;8.856;2022-07-30T06:00:40;5.68;;;2.58;;
51020;SDS011;38907;45.562;8.856;2022-07-30T06:05:42;4.30;;;2.08;;
51020;SDS011;38907;45.562;8.856;2022-07-30T06:10:45;2.42;;;2.22;;
51020;SDS011;38907;45.562;8.856;2022-07-30T06:15:49;3.65;;;2.08;;
51020;SDS011;38907;45.562;8.856;2022-07-30T06:20:52;2.72;;;2.10;;
51020;SDS011;38907;45.562;8.856;2022-07-30T06:25:55;2.35;;;1.83;;
51020;SDS011;38907;45.562;8.856;2022-07-30T06:36:01;3.80;;;2.00;;
51020;SDS011;38907;45.562;8.856;2022-07-30T06:41:04;2.40;;;2.20;;
51020;SDS011;38907;45.562;8.856;2022-07-30T06:51:10;2.60;;;2.28;;
51020;SDS011;38907;45.562;8.856;2022-07-30T07:01:17;3.72;;;2.85;;
51020;SDS011;38907;45.562;8.856;2022-07-30T07:06:22;6.10;;;2.58;;
51020;SDS011;38907;45.562;8.856;2022-07-30T07:11:25;6.30;;;2.85;;
51020;SDS011;38907;45.562;8.856;2022-07-30T07:16:30;3.63;;;2.47;;
51020;SDS011;38907;45.562;8.856;2022-07-30T07:21:32;4.70;;;2.30;;
51020;SDS011;38907;45.562;8.856;2022-07-30T07:26:35;3.97;;;2.10;;
51020;SDS011;38907;45.562;8.856;2022-07-30T07:31:39;4.22;;;2.30;;
51020;SDS011;38907;45.562;8.856;2022-07-30T07:36:43;2.88;;;2.10;;
51020;SDS011;38907;45.562;8.856;2022-07-30T07:41:46;2.45;;;2.20;;
51020;SDS011;38907;45.562;8.856;2022-07-30T07:51:52;4.55;;;1.98;;
51020;SDS011;38907;45.562;8.856;2022-07-30T07:56:55;4.35;;;1.98;;
51020;SDS011;38907;45.562;8.856;2022-07-30T08:01:59;2.65;;;2.03;;
51020;SDS011;38907;45.562;8.856;2022-07-30T08:07:02;3.80;;;1.90;;
51020;SDS011;38907;45.562;8.856;2022-07-30T08:12:04;3.47;;;2.20;;
51020;SDS011;38907;45.562;8.856;2022-07-30T08:17:09;2.97;;;2.05;;
51020;SDS011;38907;45.562;8.856;2022-07-30T08:22:11;2.88;;;1.88;;
51020;SDS011;38907;45.562;8.856;2022-07-30T08:27:14;7.97;;;1.80;;
51020;SDS011;38907;45.562;8.856;2022-07-30T08:32:19;3.58;;;1.92;;
51020;SDS011;38907;45.562;8.856;2022-07-30T08:37:21;2.75;;;1.80;;
51020;SDS011;38907;45.562;8.856;2022-07-30T08:42:24;3.10;;;1.52;;
51020;SDS011;38907;45.562;8.856;2022-07-30T08:47:30;4.47;;;2.03;;
51020;SDS011;38907;45.562;8.856;2022-07-30T08:52:34;2.08;;;1.67;;
51020;SDS011;38907;45.562;8.856;2022-07-30T08:57:38;4.20;;;1.70;;
51020;SDS011;38907;45.562;8.856;2022-07-30T09:02:43;1.90;;;1.60;;
51020;SDS011;38907;45.562;8.856;2022-07-30T09:07:46;2.85;;;1.63;;
51020;SDS011;38907;45.562;8.856;2022-07-30T09:12:48;5.65;;;1.70;;
51020;SDS011;38907;45.562;8.856;2022-07-30T09:17:54;3.47;;;2.10;;
51020;SDS011;38907;45.562;8.856;2022-07-30T09:22:58;1.95;;;1.80;;
51020;SDS011;38907;45.562;8.856;2022-07-30T09:28:06;3.80;;;2.00;;
51020;SDS011;38907;45.562;8.856;2022-07-30T09:33:12;5.63;;;1.83;;
51020;SDS011;38907;45.562;8.856;2022-07-30T09:38:15;5.63;;;2.05;;
51020;SDS011;38907;45.562;8.856;2022-07-30T09:43:18;3.88;;;1.42;;
51020;SDS011;38907;45.562;8.856;2022-07-30T09:48:23;2.10;;;1.70;;
51020;SDS011;38907;45.562;8.856;2022-07-30T09:53:29;2.65;;;2.03;;
51020;SDS011;38907;45.562;8.856;2022-07-30T09:58:38;2.03;;;1.67;;
51020;SDS011;38907;45.562;8.856;2022-07-30T10:03:43;5.38;;;1.50;;
51020;SDS011;38907;45.562;8.856;2022-07-30T10:08:47;2.92;;;2.00;;
51020;SDS011;38907;45.562;8.856;2022-07-30T10:13:52;4.32;;;2.10;;
51020;SDS011;38907;45.562;8.856;2022-07-30T10:18:58;3.20;;;2.28;;
51020;SDS011;38907;45.562;8.856;2022-07-30T10:24:01;2.60;;;0.93;;
51020;SDS011;38907;45.562;8.856;2022-07-30T10:29:05;1.15;;;0.60;;
51020;SDS011;38907;45.562;8.856;2022-07-30T10:34:09;3.28;;;1.25;;
51020;SDS011;38907;45.562;8.856;2022-07-30T10:39:14;2.15;;;0.77;;
51020;SDS011;38907;45.562;8.856;2022-07-30T10:44:32;1.25;;;0.70;;
51020;SDS011;38907;45.562;8.856;2022-07-30T10:55:11;4.82;;;0.98;;
51020;SDS011;38907;45.562;8.856;2022-07-30T11:00:15;1.58;;;0.60;;
51020;SDS011;38907;45.562;8.856;2022-07-30T11:05:24;1.05;;;0.70;;
51020;SDS011;38907;45.562;8.856;2022-07-30T11:10:34;1.45;;;0.70;;
51020;SDS011;38907;45.562;8.856;2022-07-30T11:15:51;0.90;;;0.67;;
51020;SDS011;38907;45.562;8.856;2022-07-30T11:21:16;2.20;;;0.70;;
51020;SDS011;38907;45.562;8.856;2022-07-30T11:31:48;2.28;;;0.65;;
51020;SDS011;38907;45.562;8.856;2022-07-30T11:37:09;2.22;;;0.70;;
51020;SDS011;38907;45.562;8.856;2022-07-30T11:42:23;0.90;;;0.75;;
51020;SDS011;38907;45.562;8.856;2022-07-30T11:47:26;0.95;;;0.70;;
51020;SDS011;38907;45.562;8.856;2022-07-30T11:52:30;7.43;;;0.73;;
51020;SDS011;38907;45.562;8.856;2022-07-30T11:57:40;2.40;;;0.70;;
51020;SDS011;38907;45.562;8.856;2022-07-30T12:02:44;2.60;;;0.70;;
51020;SDS011;38907;45.562;8.856;2022-07-30T12:07:49;1.52;;;0.65;;
51020;SDS011;38907;45.562;8.856;2022-07-30T12:12:51;0.95;;;0.63;;
51020;SDS011;38907;45.562;8.856;2022-07-30T12:18:07;1.85;;;0.80;;
51020;SDS011;38907;45.562;8.856;2022-07-30T12:23:14;3.78;;;0.70;;
51020;SDS011;38907;45.562;8.856;2022-07-30T12:28:20;1.75;;;0.80;;
51020;SDS011;38907;45.562;8.856;2022-07-30T12:33:24;1.50;;;0.70;;
51020;SDS011;38907;45.562;8.856;2022-07-30T12:38:29;3.00;;;0.80;;
51020;SDS011;38907;45.562;8.856;2022-07-30T12:43:46;0.80;;;0.65;;
51020;SDS011;38907;45.562;8.856;2022-07-30T12:48:59;1.55;;;0.73;;
51020;SDS011;38907;45.562;8.856;2022-07-30T12:54:14;1.17;;;0.70;;
51020;SDS011;38907;45.562;8.856;2022-07-30T12:59:21;1.15;;;0.80;;
51020;SDS011;38907;45.562;8.856;2022-07-30T13:04:25;1.45;;;0.70;;
51020;SDS011;38907;45.562;8.856;2022-07-30T13:09:29;1.55;;;0.85;;
51020;SDS011;38907;45.562;8.856;2022-07-30T13:14:32;4.05;;;0.60;;
51020;SDS011;38907;45.562;8.856;2022-07-30T13:19:36;2.63;;;0.70;;
51020;SDS011;38907;45.562;8.856;2022-07-30T13:24:41;3.15;;;0.85;;
51020;SDS011;38907;45.562;8.856;2022-07-30T13:29:43;0.55;;;0.50;;
51020;SDS011;38907;45.562;8.856;2022-07-30T13:34:46;3.33;;;0.80;;
51020;SDS011;38907;45.562;8.856;2022-07-30T13:39:50;1.88;;;0.70;;
51020;SDS011;38907;45.562;8.856;2022-07-30T13:44:53;0.50;;;0.47;;
51020;SDS011;38907;45.562;8.856;2022-07-30T13:49:56;1.25;;;0.60;;
51020;SDS011;38907;45.562;8.856;2022-07-30T13:55:00;1.17;;;0.70;;
51020;SDS011;38907;45.562;8.856;2022-07-30T14:00:03;1.00;;;0.70;;
51020;SDS011;38907;45.562;8.856;2022-07-30T14:05:07;1.20;;;0.88;;
51020;SDS011;38907;45.562;8.856;2022-07-30T14:10:11;16.80;;;1.35;;
51020;SDS011;38907;45.562;8.856;2022-07-30T14:15:15;0.68;;;0.68;;
51020;SDS011;38907;45.562;8.856;2022-07-30T14:20:18;4.35;;;1.08;;
51020;SDS011;38907;45.562;8.856;2022-07-30T14:25:22;0.98;;;0.75;;
51020;SDS011;38907;45.562;8.856;2022-07-30T14:30:25;4.63;;;0.85;;
51020;SDS011;38907;45.562;8.856;2022-07-30T14:35:29;1.48;;;0.50;;
51020;SDS011;38907;45.562;8.856;2022-07-30T14:40:33;5.65;;;0.80;;
51020;SDS011;38907;45.562;8.856;2022-07-30T14:45:36;0.77;;;0.70;;
51020;SDS011;38907;45.562;8.856;2022-07-30T14:50:39;1.23;;;0.52;;
51020;SDS011;38907;45.562;8.856;2022-07-30T14:55:45;0.50;;;0.50;;
51020;SDS011;38907;45.562;8.856;2022-07-30T15:00:48;0.73;;;0.60;;
51020;SDS011;38907;45.562;8.856;2022-07-30T15:05:51;6.25;;;0.77;;
51020;SDS011;38907;45.562;8.856;2022-07-30T15:10:55;2.63;;;0.70;;
51020;SDS011;38907;45.562;8.856;2022-07-30T15:15:58;2.25;;;0.50;;
51020;SDS011;38907;45.562;8.856;2022-07-30T15:21:01;0.63;;;0.50;;
51020;SDS011;38907;45.562;8.856;2022-07-30T15:26:05;5.40;;;0.88;;
51020;SDS011;38907;45.562;8.856;2022-07-30T15:31:08;2.15;;;0.80;;
51020;SDS011;38907;45.562;8.856;2022-07-30T15:36:10;2.92;;;0.45;;
51020;SDS011;38907;45.562;8.856;2022-07-30T15:41:15;0.77;;;0.50;;
51020;SDS011;38907;45.562;8.856;2022-07-30T15:46:17;1.85;;;0.57;;
51020;SDS011;38907;45.562;8.856;2022-07-30T15:51:20;2.03;;;0.50;;
51020;SDS011;38907;45.562;8.856;2022-07-30T15:56:24;2.38;;;0.60;;
51020;SDS011;38907;45.562;8.856;2022-07-30T16:01:29;2.17;;;0.70;;
51020;SDS011;38907;45.562;8.856;2022-07-30T16:06:31;3.53;;;0.60;;
51020;SDS011;38907;45.562;8.856;2022-07-30T16:11:36;1.05;;;0.43;;
51020;SDS011;38907;45.562;8.856;2022-07-30T16:16:40;1.17;;;0.60;;
51020;SDS011;38907;45.562;8.856;2022-07-30T16:21:43;1.75;;;0.43;;
51020;SDS011;38907;45.562;8.856;2022-07-30T16:26:47;1.38;;;0.50;;
51020;SDS011;38907;45.562;8.856;2022-07-30T16:31:50;1.00;;;0.73;;
51020;SDS011;38907;45.562;8.856;2022-07-30T16:36:53;1.42;;;0.75;;
51020;SDS011;38907;45.562;8.856;2022-07-30T16:41:57;0.93;;;0.60;;
51020;SDS011;38907;45.562;8.856;2022-07-30T16:47:00;1.30;;;0.60;;
51020;SDS011;38907;45.562;8.856;2022-07-30T16:52:03;1.75;;;0.55;;
51020;SDS011;38907;45.562;8.856;2022-07-30T16:57:07;1.45;;;0.57;;
51020;SDS011;38907;45.562;8.856;2022-07-30T17:02:10;0.95;;;0.50;;
51020;SDS011;38907;45.562;8.856;2022-07-30T17:07:14;2.03;;;0.50;;
51020;SDS011;38907;45.562;8.856;2022-07-30T17:12:18;4.30;;;0.60;;
51020;SDS011;38907;45.562;8.856;2022-07-30T17:17:21;2.53;;;0.52;;
51020;SDS011;38907;45.562;8.856;2022-07-30T17:22:24;3.17;;;0.63;;
51020;SDS011;38907;45.562;8.856;2022-07-30T17:27:29;1.25;;;0.80;;
51020;SDS011;38907;45.562;8.856;2022-07-30T17:32:32;1.20;;;0.45;;
51020;SDS011;38907;45.562;8.856;2022-07-30T17:37:35;0.60;;;0.50;;
51020;SDS011;38907;45.562;8.856;2022-07-30T17:42:39;3.47;;;0.63;;
51020;SDS011;38907;45.562;8.856;2022-07-30T17:47:44;1.08;;;0.55;;
51020;SDS011;38907;45.562;8.856;2022-07-30T17:52:47;1.25;;;0.60;;
51020;SDS011;38907;45.562;8.856;2022-07-30T17:57:51;5.53;;;1.13;;
51020;SDS011;38907;45.562;8.856;2022-07-30T18:02:54;0.60;;;0.50;;
51020;SDS011;38907;45.562;8.856;2022-07-30T18:07:57;0.80;;;0.70;;
51020;SDS011;38907;45.562;8.856;2022-07-30T18:13:01;1.17;;;0.60;;
51020;SDS011;38907;45.562;8.856;2022-07-30T18:18:03;8.45;;;0.70;;
51020;SDS011;38907;45.562;8.856;2022-07-30T18:23:07;2.58;;;0.60;;
51020;SDS011;38907;45.562;8.856;2022-07-30T18:28:11;0.60;;;0.60;;
51020;SDS011;38907;45.562;8.856;2022-07-30T18:33:14;3.72;;;0.70;;
51020;SDS011;38907;45.562;8.856;2022-07-30T18:38:17;1.25;;;0.80;;
51020;SDS011;38907;45.562;8.856;2022-07-30T18:43:21;1.98;;;0.60;;
51020;SDS011;38907;45.562;8.856;2022-07-30T18:48:24;4.07;;;0.75;;
51020;SDS011;38907;45.562;8.856;2022-07-30T18:53:27;1.63;;;0.70;;
51020;SDS011;38907;45.562;8.856;2022-07-30T18:58:31;2.10;;;0.80;;
51020;SDS011;38907;45.562;8.856;2022-07-30T19:03:34;1.50;;;0.60;;
51020;SDS011;38907;45.562;8.856;2022-07-30T19:08:37;1.08;;;0.80;;
51020;SDS011;38907;45.562;8.856;2022-07-30T19:13:42;1.42;;;0.88;;
51020;SDS011;38907;45.562;8.856;2022-07-30T19:18:44;1.25;;;0.80;;
51020;SDS011;38907;45.562;8.856;2022-07-30T19:23:47;1.70;;;0.80;;
51020;SDS011;38907;45.562;8.856;2022-07-30T19:28:52;1.67;;;0.70;;
51020;SDS011;38907;45.562;8.856;2022-07-30T19:33:54;0.68;;;0.60;;
51020;SDS011;38907;45.562;8.856;2022-07-30T19:38:57;1.15;;;0.88;;
51020;SDS011;38907;45.562;8.856;2022-07-30T19:44:01;1.00;;;0.57;;
51020;SDS011;38907;45.562;8.856;2022-07-30T19:49:04;1.58;;;1.00;;
51020;SDS011;38907;45.562;8.856;2022-07-30T19:54:07;1.50;;;0.60;;
51020;SDS011;38907;45.562;8.856;2022-07-30T19:59:11;4.60;;;0.60;;
51020;SDS011;38907;45.562;8.856;2022-07-30T20:04:14;1.35;;;0.80;;
51020;SDS011;38907;45.562;8.856;2022-07-30T20:09:17;1.00;;;0.80;;
51020;SDS011;38907;45.562;8.856;2022-07-30T20:14:23;1.45;;;0.70;;
51020;SDS011;38907;45.562;8.856;2022-07-30T20:19:27;1.15;;;0.70;;
51020;SDS011;38907;45.562;8.856;2022-07-30T20:24:30;1.83;;;0.80;;
51020;SDS011;38907;45.562;8.856;2022-07-30T20:29:34;6.38;;;0.80;;
51020;SDS011;38907;45.562;8.856;2022-07-30T20:34:37;0.60;;;0.60;;
51020;SDS011;38907;45.562;8.856;2022-07-30T20:39:41;1.20;;;0.80;;
51020;SDS011;38907;45.562;8.856;2022-07-30T20:44:45;3.80;;;0.70;;
51020;SDS011;38907;45.562;8.856;2022-07-30T20:49:51;1.05;;;0.82;;
51020;SDS011;38907;45.562;8.856;2022-07-30T20:54:54;1.73;;;0.70;;
51020;SDS011;38907;45.562;8.856;2022-07-30T20:59:58;0.85;;;0.80;;
51020;SDS011;38907;45.562;8.856;2022-07-30T21:05:01;3.10;;;0.90;;
51020;SDS011;38907;45.562;8.856;2022-07-30T21:10:04;0.90;;;0.90;;
51020;SDS011;38907;45.562;8.856;2022-07-30T21:15:09;1.42;;;0.77;;
51020;SDS011;38907;45.562;8.856;2022-07-30T21:20:12;3.03;;;1.02;;
51020;SDS011;38907;45.562;8.856;2022-07-30T21:25:15;4.03;;;1.02;;
51020;SDS011;38907;45.562;8.856;2022-07-30T21:30:19;1.33;;;1.00;;
51020;SDS011;38907;45.562;8.856;2022-07-30T21:35:22;1.17;;;0.90;;
51020;SDS011;38907;45.562;8.856;2022-07-30T21:40:24;1.70;;;0.85;;
51020;SDS011;38907;45.562;8.856;2022-07-30T21:45:30;2.00;;;0.98;;
51020;SDS011;38907;45.562;8.856;2022-07-30T21:50:32;1.00;;;0.77;;
51020;SDS011;38907;45.562;8.856;2022-07-30T21:55:37;3.35;;;1.33;;
51020;SDS011;38907;45.562;8.856;2022-07-30T22:00:41;1.80;;;0.95;;
51020;SDS011;38907;45.562;8.856;2022-07-30T22:06:00;1.67;;;0.90;;
51020;SDS011;38907;45.562;8.856;2022-07-30T22:11:02;1.20;;;0.98;;
51020;SDS011;38907;45.562;8.856;2022-07-30T22:16:06;1.85;;;1.23;;
51020;SDS011;38907;45.562;8.856;2022-07-30T22:21:09;2.13;;;1.45;;
51020;SDS011;38907;45.562;8.856;2022-07-30T22:26:12;5.60;;;1.50;;
51020;SDS011;38907;45.562;8.856;2022-07-30T22:31:16;3.42;;;1.30;;
51020;SDS011;38907;45.562;8.856;2022-07-30T22:36:18;3.10;;;0.90;;
51020;SDS011;38907;45.562;8.856;2022-07-30T22:41:21;2.47;;;1.10;;
51020;SDS011;38907;45.562;8.856;2022-07-30T22:46:25;1.63;;;0.90;;
51020;SDS011;38907;45.562;8.856;2022-07-30T22:51:28;1.58;;;0.90;;
51020;SDS011;38907;45.562;8.856;2022-07-30T22:56:30;1.33;;;0.90;;
51020;SDS011;38907;45.562;8.856;2022-07-30T23:01:35;2.15;;;0.80;;
51020;SDS011;38907;45.562;8.856;2022-07-30T23:06:37;1.40;;;1.10;;
51020;SDS011;38907;45.562;8.856;2022-07-30T23:11:40;1.13;;;0.70;;
51020;SDS011;38907;45.562;8.856;2022-07-30T23:16:44;1.63;;;1.00;;
51020;SDS011;38907;45.562;8.856;2022-07-30T23:21:47;1.90;;;0.90;;
51020;SDS011;38907;45.562;8.856;2022-07-30T23:26:50;1.27;;;0.80;;
51020;SDS011;38907;45.562;8.856;2022-07-30T23:31:54;2.35;;;1.00;;
51020;SDS011;38907;45.562;8.856;2022-07-30T23:36:57;2.05;;;1.00;;
51020;SDS011;38907;45.562;8.856;2022-07-30T23:42:03;0.70;;;0.70;;
51020;SDS011;38907;45.562;8.856;2022-07-30T23:47:07;2.33;;;0.70;;
51020;SDS011;38907;45.562;8.856;2022-07-30T23:52:10;1.17;;;0.68;;
51020;SDS011;38907;45.562;8.856;2022-07-30T23:57:13;1.38;;;0.75;;
